Terminal Aerodrome Forecast
Issued by NWS Lake Charles, LA

Home | Current Version | Previous Version | Text Only | Print | Product List | Glossary On
Versions: 1 2 3 4 5 6 7 8 9 10 11 12
000
FTUS44 KLCH 211100
TAFARA
TAF
KARA 211123Z 2112/2212 02005KT P6SM FEW250
     FM211600 05010KT P6SM SCT250
     FM212300 04005KT P6SM SCT250=

USA.gov is the U.S. government's official web portal to all federal, state and local government web resources and services.